createdAt,value
2023-01-17T00:01:33.798Z,3.39
2023-01-17T00:04:18.612Z,3.39
2023-01-17T00:07:03.466Z,3.36
2023-01-17T00:09:48.286Z,3.32
2023-01-17T00:12:14.672Z,3.35
2023-01-17T00:14:41.036Z,3.32
2023-01-17T00:17:07.419Z,3.30
2023-01-17T00:19:52.360Z,3.27
2023-01-17T00:22:48.197Z,3.19
2023-01-17T00:25:39.015Z,3.10
2023-01-17T00:28:05.899Z,3.11
2023-01-17T00:30:32.587Z,3.08
2023-01-17T00:33:03.771Z,2.98
2023-01-17T00:35:31.840Z,3.02
2023-01-17T00:38:22.279Z,2.98
2023-01-17T00:40:49.831Z,2.98
2023-01-17T00:43:39.056Z,2.94
2023-01-17T00:46:24.764Z,2.91
2023-01-17T00:49:10.004Z,2.93
2023-01-17T00:51:55.693Z,2.94
2023-01-17T00:54:40.405Z,2.92
2023-01-17T00:57:25.753Z,2.93
2023-01-17T01:00:11.108Z,2.89
2023-01-17T01:02:56.494Z,2.93
2023-01-17T01:05:41.691Z,2.92
2023-01-17T01:08:42.235Z,2.96
2023-01-17T01:11:30.027Z,2.92
2023-01-17T01:14:15.407Z,2.84
2023-01-17T01:17:00.290Z,2.82
2023-01-17T01:19:45.157Z,2.76
2023-01-17T01:22:29.718Z,2.68
2023-01-17T01:25:14.440Z,2.67
2023-01-17T01:27:59.223Z,2.66
2023-01-17T01:30:43.874Z,2.62
2023-01-17T01:33:19.230Z,2.57
2023-01-17T01:35:55.411Z,2.60
2023-01-17T01:38:24.050Z,2.58
2023-01-17T01:40:53.612Z,2.57
2023-01-17T01:43:39.319Z,2.58
2023-01-17T01:46:06.789Z,2.58
2023-01-17T01:48:49.701Z,2.56
2023-01-17T01:51:21.867Z,2.58
2023-01-17T01:53:54.063Z,2.60
2023-01-17T01:56:23.185Z,2.57
2023-01-17T01:58:52.107Z,2.55
2023-01-17T02:01:19.016Z,2.17
2023-01-17T02:03:46.396Z,1.89
2023-01-17T02:06:36.295Z,1.80
2023-01-17T02:09:12.274Z,1.78
2023-01-17T02:11:40.592Z,1.78
2023-01-17T02:14:08.686Z,1.74
2023-01-17T02:16:44.323Z,1.56
2023-01-17T02:20:00.788Z,1.38
2023-01-17T02:22:46.414Z,1.18
2023-01-17T02:25:48.436Z,1.12
2023-01-17T02:28:47.131Z,1.20
2023-01-17T02:31:21.079Z,1.32
2023-01-17T02:33:57.449Z,1.40
2023-01-17T02:36:29.034Z,1.18
2023-01-17T02:39:13.462Z,0.84
2023-01-17T02:41:46.740Z,0.56
2023-01-17T02:44:18.450Z,0.49
2023-01-17T02:47:21.250Z,0.27
2023-01-17T02:49:47.668Z,0.23
2023-01-17T02:52:31.558Z,0.15
2023-01-17T02:55:16.007Z,0.08
2023-01-17T02:58:08.616Z,0.03
2023-01-17T03:01:03.844Z,0.04
2023-01-17T03:04:05.632Z,-0.01
2023-01-17T03:06:40.052Z,0.02
2023-01-17T03:09:07.691Z,0.02
2023-01-17T03:11:34.366Z,0.02
2023-01-17T03:14:00.727Z,0.07
2023-01-17T03:16:31.241Z,0.15
2023-01-17T03:18:57.628Z,0.14
2023-01-17T03:21:24.782Z,0.17
2023-01-17T03:23:51.611Z,0.21
2023-01-17T03:26:18.045Z,0.17
2023-01-17T03:28:44.637Z,0.17
2023-01-17T03:31:15.035Z,0.20
2023-01-17T03:33:41.549Z,0.18
2023-01-17T03:36:08.440Z,0.22
2023-01-17T03:38:34.798Z,0.25
2023-01-17T03:41:01.223Z,0.24
2023-01-17T03:43:27.561Z,0.32
2023-01-17T03:46:02.185Z,0.36
2023-01-17T03:48:28.643Z,0.38
2023-01-17T03:50:55.003Z,0.39
2023-01-17T03:53:21.365Z,0.39
2023-01-17T03:55:49.432Z,0.44
2023-01-17T03:58:16.245Z,0.48
2023-01-17T04:00:43.047Z,0.52
2023-01-17T04:03:09.630Z,0.56
2023-01-17T04:05:36.027Z,0.61
2023-01-17T04:08:03.041Z,0.61
2023-01-17T04:10:29.396Z,0.68
2023-01-17T04:12:55.751Z,0.72
2023-01-17T04:15:22.128Z,0.77
2023-01-17T04:17:48.722Z,0.82
2023-01-17T04:20:36.662Z,0.87
2023-01-17T04:23:03.777Z,0.90
2023-01-17T04:25:30.863Z,0.91
2023-01-17T04:27:58.524Z,0.96
2023-01-17T04:30:25.388Z,0.93
2023-01-17T04:32:52.032Z,0.96
2023-01-17T04:35:18.421Z,1.00
2023-01-17T04:37:44.876Z,1.01
2023-01-17T04:40:12.011Z,1.03
2023-01-17T04:42:38.539Z,1.04
2023-01-17T04:45:06.006Z,1.03
2023-01-17T04:47:34.145Z,1.06
2023-01-17T04:50:00.530Z,1.03
2023-01-17T04:52:26.934Z,1.12
2023-01-17T04:54:53.352Z,1.08
2023-01-17T04:57:20.059Z,1.14
2023-01-17T04:59:46.847Z,1.13
2023-01-17T05:02:14.100Z,1.12
2023-01-17T05:04:40.474Z,1.08
2023-01-17T05:07:07.061Z,1.06
2023-01-17T05:09:33.528Z,1.05
2023-01-17T05:11:59.959Z,1.05
2023-01-17T05:14:26.423Z,1.06
2023-01-17T05:16:56.660Z,1.06
2023-01-17T05:19:23.865Z,1.11
2023-01-17T05:21:50.312Z,1.10
2023-01-17T05:24:17.468Z,1.13
2023-01-17T05:26:43.998Z,1.14
2023-01-17T05:29:10.897Z,1.11
2023-01-17T05:31:37.737Z,1.09
2023-01-17T05:34:04.377Z,1.10
2023-01-17T05:36:30.862Z,1.01
2023-01-17T05:38:57.317Z,0.96
2023-01-17T05:41:23.730Z,0.94
2023-01-17T05:43:50.114Z,0.93
2023-01-17T05:46:17.970Z,0.91
2023-01-17T05:48:44.517Z,0.88
2023-01-17T05:51:10.897Z,0.87
2023-01-17T05:53:37.432Z,0.87
2023-01-17T05:56:03.893Z,0.77
2023-01-17T05:58:30.259Z,0.75
2023-01-17T06:00:56.722Z,0.76
2023-01-17T06:03:23.101Z,0.75
2023-01-17T06:05:50.062Z,0.76
2023-01-17T06:08:16.745Z,0.74
2023-01-17T06:10:43.528Z,0.69
2023-01-17T06:13:12.668Z,0.74
2023-01-17T06:15:39.407Z,0.75
2023-01-17T06:18:11.451Z,0.79
2023-01-17T06:20:38.568Z,0.81
2023-01-17T06:23:07.416Z,0.84
2023-01-17T06:25:47.866Z,0.84
2023-01-17T06:28:16.883Z,0.80
2023-01-17T06:30:43.937Z,0.90
2023-01-17T06:33:11.306Z,0.89
2023-01-17T06:35:40.106Z,0.89
2023-01-17T06:38:06.984Z,0.92
2023-01-17T06:40:33.608Z,0.95
2023-01-17T06:43:04.593Z,1.00
2023-01-17T06:45:33.474Z,0.97
2023-01-17T06:48:01.232Z,0.98
2023-01-17T06:50:27.796Z,1.02
2023-01-17T06:52:59.978Z,0.95
2023-01-17T06:55:30.724Z,0.98
2023-01-17T06:57:59.296Z,1.02
2023-01-17T07:00:27.838Z,0.95
2023-01-17T07:02:54.547Z,0.97
2023-01-17T07:05:21.490Z,1.05
2023-01-17T07:07:48.282Z,1.06
2023-01-17T07:10:15.954Z,1.07
2023-01-17T07:12:42.380Z,1.05
2023-01-17T07:15:09.521Z,1.08
2023-01-17T07:17:35.896Z,1.11
2023-01-17T07:20:02.437Z,1.04
2023-01-17T07:22:28.864Z,0.99
2023-01-17T07:24:58.380Z,0.99
2023-01-17T07:27:27.564Z,1.04
2023-01-17T07:29:54.380Z,1.00
2023-01-17T07:32:20.987Z,1.03
2023-01-17T07:34:47.454Z,1.03
2023-01-17T07:37:15.351Z,1.08
2023-01-17T07:39:41.971Z,1.09
2023-01-17T07:42:09.052Z,0.99
2023-01-17T07:44:35.436Z,1.06
2023-01-17T07:47:01.857Z,1.08
2023-01-17T07:49:28.209Z,1.08
2023-01-17T07:51:55.437Z,1.15
2023-01-17T07:54:21.984Z,1.09
2023-01-17T07:56:48.935Z,1.04
2023-01-17T07:59:15.445Z,1.05
2023-01-17T08:01:41.929Z,1.01
2023-01-17T08:04:09.197Z,1.05
2023-01-17T08:06:39.180Z,1.14
2023-01-17T08:09:05.592Z,1.19
2023-01-17T08:11:31.978Z,1.25
2023-01-17T08:13:59.420Z,1.23
2023-01-17T08:16:28.546Z,1.19
2023-01-17T08:18:56.216Z,1.12
2023-01-17T08:21:22.797Z,1.13
2023-01-17T08:23:50.560Z,1.09
2023-01-17T08:26:22.036Z,1.12
2023-01-17T08:28:56.762Z,1.09
2023-01-17T08:31:24.420Z,1.10
2023-01-17T08:33:50.808Z,1.10
2023-01-17T08:36:17.550Z,1.05
2023-01-17T08:38:44.037Z,1.05
2023-01-17T08:41:10.465Z,1.03
2023-01-17T08:43:36.808Z,1.04
2023-01-17T08:46:03.180Z,1.02
2023-01-17T08:48:29.590Z,0.95
2023-01-17T08:51:00.474Z,0.93
2023-01-17T08:53:26.867Z,0.93
2023-01-17T08:56:00.587Z,0.94
2023-01-17T08:58:30.328Z,0.97
2023-01-17T09:01:02.773Z,0.97
2023-01-17T09:03:30.535Z,0.99
2023-01-17T09:06:04.086Z,1.06
2023-01-17T09:08:30.737Z,1.10
2023-01-17T09:10:57.410Z,1.11
2023-01-17T09:13:23.833Z,1.24
2023-01-17T09:15:50.262Z,1.30
2023-01-17T09:18:16.600Z,1.23
2023-01-17T09:20:42.940Z,1.23
2023-01-17T09:23:09.268Z,1.31
2023-01-17T09:25:35.597Z,1.37
2023-01-17T09:28:01.990Z,1.39
2023-01-17T09:30:28.406Z,1.48
2023-01-17T09:32:55.250Z,1.49
2023-01-17T09:35:21.602Z,1.45
2023-01-17T09:37:51.568Z,1.43
2023-01-17T09:40:21.461Z,1.49
2023-01-17T09:42:51.594Z,1.51
2023-01-17T09:45:19.577Z,1.55
2023-01-17T09:47:52.438Z,1.68
2023-01-17T09:50:25.287Z,1.90
2023-01-17T09:53:00.565Z,1.96
2023-01-17T09:55:34.000Z,1.93
2023-01-17T09:58:06.178Z,1.86
2023-01-17T10:00:46.725Z,1.98
2023-01-17T10:03:42.558Z,2.08
2023-01-17T10:06:30.743Z,2.23
2023-01-17T10:09:40.603Z,2.07
2023-01-17T10:12:24.696Z,2.15
2023-01-17T10:15:19.940Z,2.13
2023-01-17T10:17:52.258Z,2.21
2023-01-17T10:20:53.398Z,2.39
2023-01-17T10:23:31.859Z,2.48
2023-01-17T10:26:05.408Z,2.41
2023-01-17T10:28:39.098Z,2.39
2023-01-17T10:31:07.924Z,2.40
2023-01-17T10:33:43.083Z,2.37
2023-01-17T10:36:15.253Z,2.42
2023-01-17T10:38:47.045Z,2.41
2023-01-17T10:41:23.805Z,2.42
2023-01-17T10:43:59.440Z,2.38
2023-01-17T10:46:32.426Z,2.33
2023-01-17T10:49:01.064Z,2.23
2023-01-17T10:51:49.625Z,2.19
2023-01-17T10:54:29.682Z,2.19
2023-01-17T10:56:56.122Z,2.31
2023-01-17T10:59:34.800Z,2.33
2023-01-17T11:02:07.314Z,2.42
2023-01-17T11:04:36.601Z,2.52
2023-01-17T11:07:14.622Z,2.69
2023-01-17T11:09:47.294Z,2.83
2023-01-17T11:12:29.531Z,2.95
2023-01-17T11:15:25.819Z,2.98
2023-01-17T11:18:02.278Z,2.90
2023-01-17T11:20:35.583Z,2.99
2023-01-17T11:23:04.940Z,2.96
2023-01-17T11:25:35.459Z,3.14
2023-01-17T11:28:21.718Z,3.18
2023-01-17T11:31:03.524Z,3.34
2023-01-17T11:33:44.880Z,3.37
2023-01-17T11:36:28.940Z,3.50
2023-01-17T11:38:58.071Z,3.48
2023-01-17T11:41:27.858Z,3.43
2023-01-17T11:43:56.316Z,3.42
2023-01-17T11:46:23.837Z,3.54
2023-01-17T11:48:56.478Z,3.56
2023-01-17T11:51:25.286Z,3.54
2023-01-17T11:53:54.047Z,3.69
2023-01-17T11:56:33.129Z,3.65
2023-01-17T11:59:21.303Z,3.54
2023-01-17T12:02:15.592Z,3.59
2023-01-17T12:04:45.204Z,3.55
2023-01-17T12:07:42.579Z,3.65
2023-01-17T12:10:17.774Z,3.72
2023-01-17T12:13:27.438Z,3.72
2023-01-17T12:16:26.334Z,3.67
2023-01-17T12:19:27.806Z,3.50
2023-01-17T12:22:18.373Z,3.35
2023-01-17T12:25:15.214Z,3.50
2023-01-17T12:28:09.960Z,3.57
2023-01-17T12:30:42.232Z,3.40
2023-01-17T12:33:26.585Z,3.42
2023-01-17T12:35:57.510Z,3.47
2023-01-17T12:38:34.742Z,3.50
2023-01-17T12:41:15.981Z,3.57
2023-01-17T12:43:44.286Z,3.64
2023-01-17T12:46:23.862Z,3.82
2023-01-17T12:49:02.763Z,3.79
2023-01-17T12:51:36.706Z,3.71
2023-01-17T12:54:13.039Z,3.75
2023-01-17T12:56:48.677Z,3.76
2023-01-17T12:59:22.162Z,3.87
2023-01-17T13:01:58.539Z,3.96
2023-01-17T13:04:34.445Z,3.92
2023-01-17T13:07:21.853Z,3.82
2023-01-17T13:09:55.259Z,3.89
2023-01-17T13:12:24.798Z,4.00
2023-01-17T13:14:51.132Z,3.95
2023-01-17T13:17:44.846Z,3.95
2023-01-17T13:20:33.357Z,3.97
2023-01-17T13:23:09.795Z,3.96
2023-01-17T13:25:46.365Z,3.94
2023-01-17T13:28:21.514Z,3.94
2023-01-17T13:30:53.476Z,3.87
2023-01-17T13:33:32.806Z,3.86
2023-01-17T13:36:20.373Z,3.81
2023-01-17T13:39:07.586Z,3.75
2023-01-17T13:41:33.871Z,3.82
2023-01-17T13:44:20.511Z,3.79
2023-01-17T13:47:04.161Z,3.82
2023-01-17T13:49:31.512Z,3.84
2023-01-17T13:52:07.425Z,3.84
2023-01-17T13:54:34.263Z,3.82
2023-01-17T13:57:55.112Z,3.80
2023-01-17T14:00:27.247Z,3.86
2023-01-17T14:02:55.538Z,3.91
2023-01-17T14:05:41.972Z,3.90
2023-01-17T14:08:18.789Z,3.89
2023-01-17T14:10:49.654Z,3.87
2023-01-17T14:13:39.370Z,3.88
2023-01-17T14:16:27.555Z,3.81
2023-01-17T14:18:55.340Z,3.80
2023-01-17T14:21:33.475Z,3.72
2023-01-17T14:24:04.927Z,3.77
2023-01-17T14:26:41.730Z,3.75
2023-01-17T14:29:42.438Z,3.68
2023-01-17T14:32:12.060Z,3.58
2023-01-17T14:34:38.424Z,3.55
2023-01-17T14:37:15.952Z,3.53
2023-01-17T14:39:46.969Z,3.53
2023-01-17T14:42:19.217Z,3.57
2023-01-17T14:44:48.334Z,3.59
2023-01-17T14:47:15.921Z,3.66
2023-01-17T14:49:42.542Z,3.69
2023-01-17T14:52:18.139Z,3.73
2023-01-17T14:54:49.471Z,3.68
2023-01-17T14:57:27.064Z,3.66
2023-01-17T15:00:13.687Z,3.65
2023-01-17T15:02:42.515Z,3.62
2023-01-17T15:05:13.783Z,3.62
2023-01-17T15:07:41.151Z,3.63
2023-01-17T15:10:22.684Z,3.64
2023-01-17T15:12:49.852Z,3.58
2023-01-17T15:15:39.564Z,3.61
2023-01-17T15:18:20.402Z,3.64
2023-01-17T15:21:02.359Z,3.53
2023-01-17T15:23:45.604Z,3.45
2023-01-17T15:26:15.726Z,3.47
2023-01-17T15:28:44.642Z,3.33
2023-01-17T15:31:15.465Z,3.30
2023-01-17T15:33:46.435Z,3.27
2023-01-17T15:36:23.156Z,3.25
2023-01-17T15:39:02.212Z,3.23
2023-01-17T15:41:34.690Z,3.20
2023-01-17T15:44:02.222Z,3.06
2023-01-17T15:46:31.973Z,2.97
2023-01-17T15:49:17.510Z,2.91
2023-01-17T15:51:53.270Z,2.86
2023-01-17T15:54:28.742Z,2.82
2023-01-17T15:57:06.047Z,2.74
2023-01-17T15:59:45.316Z,2.69
2023-01-17T16:02:33.729Z,2.58
2023-01-17T16:05:02.987Z,2.51
2023-01-17T16:07:35.312Z,2.47
2023-01-17T16:10:14.712Z,2.44
2023-01-17T16:12:41.343Z,2.42
2023-01-17T16:15:12.942Z,2.35
2023-01-17T16:17:42.810Z,2.30
2023-01-17T16:20:16.509Z,2.28
2023-01-17T16:22:43.791Z,2.24
2023-01-17T16:25:16.505Z,2.16
2023-01-17T16:27:43.206Z,2.11
2023-01-17T16:30:12.082Z,2.07
2023-01-17T16:32:38.438Z,1.99
2023-01-17T16:35:06.830Z,1.97
2023-01-17T16:37:33.178Z,1.94
2023-01-17T16:39:59.621Z,1.91
2023-01-17T16:42:28.474Z,1.85
2023-01-17T16:44:54.936Z,1.84
2023-01-17T16:47:21.857Z,1.82
2023-01-17T16:49:48.215Z,1.77
2023-01-17T16:52:14.556Z,1.73
2023-01-17T16:54:40.926Z,1.72
2023-01-17T16:57:07.253Z,1.75
2023-01-17T16:59:46.110Z,1.74
2023-01-17T17:02:16.498Z,1.72
2023-01-17T17:04:42.863Z,1.68
2023-01-17T17:07:09.307Z,1.64
2023-01-17T17:09:35.635Z,1.62
2023-01-17T17:12:01.998Z,1.44
2023-01-17T17:14:29.192Z,1.36
2023-01-17T17:16:56.281Z,1.28
2023-01-17T17:19:22.982Z,1.26
2023-01-17T17:21:49.699Z,1.21
2023-01-17T17:24:19.759Z,1.21
2023-01-17T17:26:46.092Z,1.20
2023-01-17T17:29:14.526Z,1.13
2023-01-17T17:31:42.405Z,1.03
2023-01-17T17:34:11.566Z,0.97
2023-01-17T17:36:38.651Z,0.90
2023-01-17T17:39:08.938Z,0.83
2023-01-17T17:41:39.112Z,0.82
2023-01-17T17:44:05.595Z,0.76
2023-01-17T17:46:33.598Z,0.67
2023-01-17T17:49:00.653Z,0.61
2023-01-17T17:51:33.329Z,0.59
2023-01-17T17:54:05.832Z,0.51
2023-01-17T17:56:33.195Z,0.51
2023-01-17T17:59:01.293Z,0.49
2023-01-17T18:01:28.022Z,0.46
2023-01-17T18:03:56.875Z,0.40
2023-01-17T18:06:23.975Z,0.37
2023-01-17T18:08:51.862Z,0.33
2023-01-17T18:11:24.489Z,0.32
2023-01-17T18:13:52.675Z,0.25
2023-01-17T18:16:22.218Z,0.20
2023-01-17T18:18:51.059Z,0.19
2023-01-17T18:21:24.833Z,0.19
2023-01-17T18:24:02.699Z,0.17
2023-01-17T18:26:35.316Z,0.14
2023-01-17T18:29:03.401Z,0.11
2023-01-17T18:31:31.696Z,0.10
2023-01-17T18:34:00.324Z,0.12
2023-01-17T18:36:28.974Z,0.10
2023-01-17T18:38:56.388Z,0.06
2023-01-17T18:41:25.793Z,-0.01
2023-01-17T18:43:52.634Z,-0.04
2023-01-17T18:46:20.436Z,-0.08
2023-01-17T18:48:46.844Z,-0.13
2023-01-17T18:51:16.329Z,-0.16
2023-01-17T18:53:44.734Z,-0.20
2023-01-17T18:56:18.451Z,-0.23
2023-01-17T18:58:46.323Z,-0.25
2023-01-17T19:01:15.293Z,-0.24
2023-01-17T19:03:43.914Z,-0.23
2023-01-17T19:06:14.531Z,-0.25
2023-01-17T19:08:41.885Z,-0.28
2023-01-17T19:11:09.569Z,-0.28
2023-01-17T19:13:37.723Z,-0.32
2023-01-17T19:16:06.976Z,-0.35
2023-01-17T19:18:34.090Z,-0.41
2023-01-17T19:21:11.504Z,-0.49
2023-01-17T19:23:38.478Z,-0.55
2023-01-17T19:26:06.501Z,-0.57
2023-01-17T19:28:35.597Z,-0.64
2023-01-17T19:31:06.483Z,-0.62
2023-01-17T19:33:34.483Z,-0.63
2023-01-17T19:36:03.454Z,-0.69
2023-01-17T19:38:30.672Z,-0.83
2023-01-17T19:40:57.062Z,-0.95
2023-01-17T19:43:23.718Z,-0.91
2023-01-17T19:45:59.897Z,-0.95
2023-01-17T19:48:27.105Z,-0.93
2023-01-17T19:50:56.889Z,-0.84
2023-01-17T19:53:23.800Z,-0.85
2023-01-17T19:55:50.170Z,-0.82
2023-01-17T19:58:16.531Z,-0.89
2023-01-17T20:00:46.680Z,-0.99
2023-01-17T20:03:13.566Z,-1.03
2023-01-17T20:05:40.015Z,-1.07
2023-01-17T20:08:06.389Z,-1.07
2023-01-17T20:10:32.708Z,-1.07
2023-01-17T20:12:59.044Z,-1.09
2023-01-17T20:15:26.404Z,-1.11
2023-01-17T20:17:53.139Z,-1.17
2023-01-17T20:20:22.823Z,-1.16
2023-01-17T20:22:49.428Z,-1.16
2023-01-17T20:25:15.915Z,-1.21
2023-01-17T20:27:42.704Z,-1.22
2023-01-17T20:30:19.807Z,-1.28
2023-01-17T20:32:46.667Z,-1.33
2023-01-17T20:35:15.926Z,-1.34
2023-01-17T20:37:42.294Z,-1.34
2023-01-17T20:40:09.472Z,-1.32
2023-01-17T20:42:36.357Z,-1.29
2023-01-17T20:45:02.729Z,-1.34
2023-01-17T20:47:29.565Z,-1.35
2023-01-17T20:49:55.909Z,-1.38
2023-01-17T20:52:22.227Z,-1.42
2023-01-17T20:54:49.549Z,-1.45
2023-01-17T20:57:15.878Z,-1.52
2023-01-17T20:59:42.240Z,-1.51
2023-01-17T21:02:10.545Z,-1.47
2023-01-17T21:04:36.954Z,-1.48
2023-01-17T21:07:03.370Z,-1.51
2023-01-17T21:09:29.734Z,-1.53
2023-01-17T21:12:00.898Z,-1.62
2023-01-17T21:14:28.589Z,-1.67
2023-01-17T21:16:55.152Z,-1.76
2023-01-17T21:19:21.595Z,-1.82
2023-01-17T21:21:48.700Z,-1.85
2023-01-17T21:24:18.417Z,-1.86
2023-01-17T21:26:46.297Z,-1.84
2023-01-17T21:29:15.693Z,-1.82
2023-01-17T21:31:42.573Z,-1.84
2023-01-17T21:34:13.532Z,-1.92
2023-01-17T21:36:44.477Z,-2.10
2023-01-17T21:39:16.312Z,-2.06
2023-01-17T21:41:45.800Z,-2.07
2023-01-17T21:44:22.860Z,-2.08
2023-01-17T21:46:53.472Z,-2.04
2023-01-17T21:49:21.690Z,-2.08
2023-01-17T21:51:53.831Z,-2.09
2023-01-17T21:54:41.240Z,-2.15
2023-01-17T21:57:27.865Z,-2.20
2023-01-17T21:59:54.256Z,-2.24
2023-01-17T22:02:21.095Z,-2.25
2023-01-17T22:04:47.493Z,-2.22
2023-01-17T22:07:13.852Z,-2.22
2023-01-17T22:09:40.425Z,-2.14
2023-01-17T22:12:06.828Z,-2.22
2023-01-17T22:14:33.151Z,-2.17
2023-01-17T22:16:59.468Z,-2.18
2023-01-17T22:19:25.833Z,-2.18
2023-01-17T22:21:53.908Z,-2.20
2023-01-17T22:24:20.232Z,-2.24
2023-01-17T22:26:46.550Z,-2.29
2023-01-17T22:29:16.868Z,-2.34
2023-01-17T22:31:43.193Z,-2.34
2023-01-17T22:34:09.543Z,-2.34
2023-01-17T22:36:36.145Z,-2.37
2023-01-17T22:39:02.484Z,-2.41
2023-01-17T22:41:29.852Z,-2.47
2023-01-17T22:43:58.612Z,-2.51
2023-01-17T22:46:27.640Z,-2.55
2023-01-17T22:48:55.158Z,-2.62
2023-01-17T22:51:23.006Z,-2.61
2023-01-17T22:53:51.798Z,-2.66
2023-01-17T22:56:21.329Z,-2.72
2023-01-17T22:58:49.001Z,-2.79
2023-01-17T23:01:18.262Z,-2.82
2023-01-17T23:03:45.848Z,-2.76
2023-01-17T23:06:18.976Z,-2.73
2023-01-17T23:08:47.919Z,-2.77
2023-01-17T23:11:39.306Z,-2.71
2023-01-17T23:14:10.853Z,-2.71
2023-01-17T23:16:57.013Z,-2.72
2023-01-17T23:19:24.092Z,-2.73
2023-01-17T23:22:11.676Z,-2.71
2023-01-17T23:24:42.869Z,-2.73
2023-01-17T23:27:30.079Z,-2.76
2023-01-17T23:29:56.510Z,-2.74
2023-01-17T23:32:23.009Z,-2.75
2023-01-17T23:34:49.625Z,-2.77
2023-01-17T23:37:15.970Z,-2.73
2023-01-17T23:39:42.332Z,-2.75
2023-01-17T23:42:27.573Z,-2.78
2023-01-17T23:44:54.064Z,-2.78
2023-01-17T23:47:20.483Z,-2.83
2023-01-17T23:49:48.176Z,-2.82
2023-01-17T23:52:15.591Z,-2.84
2023-01-17T23:54:41.966Z,-2.84
2023-01-17T23:57:08.625Z,-2.86
2023-01-17T23:59:34.952Z,-2.90
